sensor_id;sensor_type;location;lat;lon;timestamp;P1;durP1;ratioP1;P2;durP2;ratioP2
43327;SDS011;28923;45.412;10.852;2023-05-10T00:01:37;1.50;;;1.40;;
43327;SDS011;28923;45.412;10.852;2023-05-10T00:04:03;1.50;;;1.40;;
43327;SDS011;28923;45.412;10.852;2023-05-10T00:06:29;1.55;;;1.45;;
43327;SDS011;28923;45.412;10.852;2023-05-10T00:08:55;1.60;;;1.30;;
43327;SDS011;28923;45.412;10.852;2023-05-10T00:11:20;1.33;;;1.23;;
43327;SDS011;28923;45.412;10.852;2023-05-10T00:13:45;1.40;;;1.30;;
43327;SDS011;28923;45.412;10.852;2023-05-10T00:16:11;1.58;;;1.40;;
43327;SDS011;28923;45.412;10.852;2023-05-10T00:18:38;1.75;;;1.55;;
43327;SDS011;28923;45.412;10.852;2023-05-10T00:21:04;1.77;;;1.60;;
43327;SDS011;28923;45.412;10.852;2023-05-10T00:23:30;2.20;;;1.60;;
43327;SDS011;28923;45.412;10.852;2023-05-10T00:25:55;1.55;;;1.38;;
43327;SDS011;28923;45.412;10.852;2023-05-10T00:28:21;1.75;;;1.35;;
43327;SDS011;28923;45.412;10.852;2023-05-10T00:30:46;1.48;;;1.13;;
43327;SDS011;28923;45.412;10.852;2023-05-10T00:33:12;1.52;;;1.40;;
43327;SDS011;28923;45.412;10.852;2023-05-10T00:35:37;1.45;;;1.35;;
43327;SDS011;28923;45.412;10.852;2023-05-10T00:38:03;1.20;;;1.10;;
43327;SDS011;28923;45.412;10.852;2023-05-10T00:40:28;1.50;;;1.40;;
43327;SDS011;28923;45.412;10.852;2023-05-10T00:42:59;1.35;;;1.25;;
43327;SDS011;28923;45.412;10.852;2023-05-10T00:45:25;1.30;;;1.20;;
43327;SDS011;28923;45.412;10.852;2023-05-10T00:47:51;3.25;;;1.52;;
43327;SDS011;28923;45.412;10.852;2023-05-10T00:50:20;1.20;;;1.10;;
43327;SDS011;28923;45.412;10.852;2023-05-10T00:52:46;1.52;;;1.23;;
43327;SDS011;28923;45.412;10.852;2023-05-10T00:55:11;1.40;;;1.20;;
43327;SDS011;28923;45.412;10.852;2023-05-10T00:57:37;1.40;;;1.30;;
43327;SDS011;28923;45.412;10.852;2023-05-10T01:00:03;1.25;;;1.15;;
43327;SDS011;28923;45.412;10.852;2023-05-10T01:02:28;1.10;;;1.00;;
43327;SDS011;28923;45.412;10.852;2023-05-10T01:04:55;1.60;;;1.00;;
43327;SDS011;28923;45.412;10.852;2023-05-10T01:07:22;1.17;;;1.05;;
43327;SDS011;28923;45.412;10.852;2023-05-10T01:09:48;1.30;;;1.20;;
43327;SDS011;28923;45.412;10.852;2023-05-10T01:12:15;1.38;;;1.25;;
43327;SDS011;28923;45.412;10.852;2023-05-10T01:14:41;1.23;;;1.13;;
43327;SDS011;28923;45.412;10.852;2023-05-10T01:17:06;1.25;;;1.15;;
43327;SDS011;28923;45.412;10.852;2023-05-10T01:19:32;1.65;;;1.20;;
43327;SDS011;28923;45.412;10.852;2023-05-10T01:35:20;1.42;;;1.05;;
43327;SDS011;28923;45.412;10.852;2023-05-10T01:37:52;1.23;;;1.13;;
43327;SDS011;28923;45.412;10.852;2023-05-10T01:40:26;0.93;;;0.90;;
43327;SDS011;28923;45.412;10.852;2023-05-10T01:42:54;2.22;;;1.00;;
43327;SDS011;28923;45.412;10.852;2023-05-10T01:48:05;1.02;;;0.93;;
43327;SDS011;28923;45.412;10.852;2023-05-10T01:50:31;1.40;;;1.00;;
43327;SDS011;28923;45.412;10.852;2023-05-10T01:52:58;1.15;;;1.05;;
43327;SDS011;28923;45.412;10.852;2023-05-10T01:55:25;1.10;;;0.95;;
43327;SDS011;28923;45.412;10.852;2023-05-10T01:57:54;1.02;;;0.82;;
43327;SDS011;28923;45.412;10.852;2023-05-10T02:00:21;0.93;;;0.90;;
43327;SDS011;28923;45.412;10.852;2023-05-10T02:02:50;1.30;;;0.90;;
43327;SDS011;28923;45.412;10.852;2023-05-10T02:05:16;1.10;;;0.90;;
43327;SDS011;28923;45.412;10.852;2023-05-10T02:07:42;0.90;;;0.90;;
43327;SDS011;28923;45.412;10.852;2023-05-10T02:10:09;1.67;;;0.90;;
43327;SDS011;28923;45.412;10.852;2023-05-10T02:12:35;0.95;;;0.93;;
43327;SDS011;28923;45.412;10.852;2023-05-10T02:15:01;0.80;;;0.80;;
43327;SDS011;28923;45.412;10.852;2023-05-10T02:17:27;1.20;;;1.10;;
43327;SDS011;28923;45.412;10.852;2023-05-10T02:19:53;1.40;;;1.00;;
43327;SDS011;28923;45.412;10.852;2023-05-10T02:22:20;1.02;;;0.93;;
43327;SDS011;28923;45.412;10.852;2023-05-10T02:24:46;0.82;;;0.68;;
43327;SDS011;28923;45.412;10.852;2023-05-10T02:27:12;0.70;;;0.70;;
43327;SDS011;28923;45.412;10.852;2023-05-10T02:29:40;0.70;;;0.70;;
43327;SDS011;28923;45.412;10.852;2023-05-10T02:32:06;0.60;;;0.60;;
43327;SDS011;28923;45.412;10.852;2023-05-10T02:34:31;1.05;;;0.90;;
43327;SDS011;28923;45.412;10.852;2023-05-10T02:36:57;1.17;;;1.00;;
43327;SDS011;28923;45.412;10.852;2023-05-10T02:39:24;0.80;;;0.80;;
43327;SDS011;28923;45.412;10.852;2023-05-10T02:41:50;0.90;;;0.80;;
43327;SDS011;28923;45.412;10.852;2023-05-10T02:44:17;0.80;;;0.80;;
43327;SDS011;28923;45.412;10.852;2023-05-10T02:46:45;1.55;;;1.00;;
43327;SDS011;28923;45.412;10.852;2023-05-10T02:49:11;0.85;;;0.80;;
43327;SDS011;28923;45.412;10.852;2023-05-10T02:51:37;1.05;;;0.95;;
43327;SDS011;28923;45.412;10.852;2023-05-10T02:54:12;0.80;;;0.80;;
43327;SDS011;28923;45.412;10.852;2023-05-10T02:56:42;1.27;;;1.00;;
43327;SDS011;28923;45.412;10.852;2023-05-10T02:59:08;0.80;;;0.80;;
43327;SDS011;28923;45.412;10.852;2023-05-10T03:01:33;0.77;;;0.77;;
43327;SDS011;28923;45.412;10.852;2023-05-10T03:03:59;0.80;;;0.70;;
43327;SDS011;28923;45.412;10.852;2023-05-10T03:06:24;1.00;;;0.85;;
43327;SDS011;28923;45.412;10.852;2023-05-10T03:08:49;0.70;;;0.70;;
43327;SDS011;28923;45.412;10.852;2023-05-10T03:16:46;0.93;;;0.80;;
43327;SDS011;28923;45.412;10.852;2023-05-10T03:21:41;0.80;;;0.80;;
43327;SDS011;28923;45.412;10.852;2023-05-10T03:24:09;0.88;;;0.85;;
43327;SDS011;28923;45.412;10.852;2023-05-10T03:26:37;0.98;;;0.93;;
43327;SDS011;28923;45.412;10.852;2023-05-10T03:29:11;0.82;;;0.80;;
43327;SDS011;28923;45.412;10.852;2023-05-10T03:31:38;1.33;;;1.02;;
43327;SDS011;28923;45.412;10.852;2023-05-10T03:34:04;0.88;;;0.88;;
43327;SDS011;28923;45.412;10.852;2023-05-10T03:36:30;1.02;;;0.75;;
43327;SDS011;28923;45.412;10.852;2023-05-10T03:38:55;0.90;;;0.90;;
43327;SDS011;28923;45.412;10.852;2023-05-10T03:41:21;0.88;;;0.70;;
43327;SDS011;28923;45.412;10.852;2023-05-10T03:43:46;0.88;;;0.73;;
43327;SDS011;28923;45.412;10.852;2023-05-10T03:46:12;0.90;;;0.85;;
43327;SDS011;28923;45.412;10.852;2023-05-10T03:48:38;0.63;;;0.63;;
43327;SDS011;28923;45.412;10.852;2023-05-10T03:51:04;1.00;;;0.80;;
43327;SDS011;28923;45.412;10.852;2023-05-10T03:53:29;1.00;;;0.77;;
43327;SDS011;28923;45.412;10.852;2023-05-10T03:55:55;1.10;;;0.80;;
43327;SDS011;28923;45.412;10.852;2023-05-10T03:58:20;0.77;;;0.77;;
43327;SDS011;28923;45.412;10.852;2023-05-10T04:00:45;1.63;;;0.90;;
43327;SDS011;28923;45.412;10.852;2023-05-10T04:03:12;0.80;;;0.80;;
43327;SDS011;28923;45.412;10.852;2023-05-10T04:05:38;1.75;;;0.93;;
43327;SDS011;28923;45.412;10.852;2023-05-10T04:08:03;1.58;;;0.82;;
43327;SDS011;28923;45.412;10.852;2023-05-10T04:10:29;0.88;;;0.70;;
43327;SDS011;28923;45.412;10.852;2023-05-10T04:12:56;1.23;;;0.70;;
43327;SDS011;28923;45.412;10.852;2023-05-10T04:15:21;0.82;;;0.77;;
43327;SDS011;28923;45.412;10.852;2023-05-10T04:17:46;0.95;;;0.88;;
43327;SDS011;28923;45.412;10.852;2023-05-10T04:20:12;0.60;;;0.50;;
43327;SDS011;28923;45.412;10.852;2023-05-10T04:22:38;1.02;;;0.73;;
43327;SDS011;28923;45.412;10.852;2023-05-10T04:25:03;0.80;;;0.80;;
43327;SDS011;28923;45.412;10.852;2023-05-10T04:27:29;0.70;;;0.70;;
43327;SDS011;28923;45.412;10.852;2023-05-10T04:29:55;1.23;;;0.70;;
43327;SDS011;28923;45.412;10.852;2023-05-10T04:32:20;0.70;;;0.70;;
43327;SDS011;28923;45.412;10.852;2023-05-10T04:34:45;0.63;;;0.60;;
43327;SDS011;28923;45.412;10.852;2023-05-10T04:37:11;1.55;;;0.60;;
43327;SDS011;28923;45.412;10.852;2023-05-10T04:39:36;4.18;;;0.80;;
43327;SDS011;28923;45.412;10.852;2023-05-10T04:42:02;0.70;;;0.70;;
43327;SDS011;28923;45.412;10.852;2023-05-10T04:44:28;0.77;;;0.77;;
43327;SDS011;28923;45.412;10.852;2023-05-10T04:46:54;5.60;;;1.17;;
43327;SDS011;28923;45.412;10.852;2023-05-10T04:49:19;2.53;;;1.02;;
43327;SDS011;28923;45.412;10.852;2023-05-10T04:51:45;2.60;;;1.20;;
43327;SDS011;28923;45.412;10.852;2023-05-10T04:54:10;2.53;;;0.90;;
43327;SDS011;28923;45.412;10.852;2023-05-10T04:56:35;5.95;;;1.10;;
43327;SDS011;28923;45.412;10.852;2023-05-10T04:59:01;3.58;;;1.17;;
43327;SDS011;28923;45.412;10.852;2023-05-10T05:01:26;6.63;;;1.20;;
43327;SDS011;28923;45.412;10.852;2023-05-10T05:03:52;11.38;;;1.50;;
43327;SDS011;28923;45.412;10.852;2023-05-10T05:06:18;2.72;;;1.08;;
43327;SDS011;28923;45.412;10.852;2023-05-10T05:08:43;5.82;;;1.10;;
43327;SDS011;28923;45.412;10.852;2023-05-10T05:11:08;12.60;;;1.45;;
43327;SDS011;28923;45.412;10.852;2023-05-10T05:13:34;4.78;;;1.25;;
43327;SDS011;28923;45.412;10.852;2023-05-10T05:16:00;8.30;;;1.33;;
43327;SDS011;28923;45.412;10.852;2023-05-10T05:18:26;5.93;;;1.25;;
43327;SDS011;28923;45.412;10.852;2023-05-10T05:20:52;0.80;;;0.80;;
43327;SDS011;28923;45.412;10.852;2023-05-10T05:23:17;4.70;;;1.15;;
43327;SDS011;28923;45.412;10.852;2023-05-10T05:25:43;3.75;;;0.95;;
43327;SDS011;28923;45.412;10.852;2023-05-10T05:28:08;1.95;;;1.00;;
43327;SDS011;28923;45.412;10.852;2023-05-10T05:30:34;2.55;;;1.08;;
43327;SDS011;28923;45.412;10.852;2023-05-10T05:32:59;3.42;;;1.15;;
43327;SDS011;28923;45.412;10.852;2023-05-10T05:35:25;1.52;;;1.15;;
43327;SDS011;28923;45.412;10.852;2023-05-10T05:37:50;4.43;;;1.02;;
43327;SDS011;28923;45.412;10.852;2023-05-10T05:40:15;1.58;;;0.93;;
43327;SDS011;28923;45.412;10.852;2023-05-10T05:42:41;3.47;;;1.00;;
43327;SDS011;28923;45.412;10.852;2023-05-10T05:45:06;2.83;;;1.00;;
43327;SDS011;28923;45.412;10.852;2023-05-10T05:47:32;1.05;;;0.73;;
43327;SDS011;28923;45.412;10.852;2023-05-10T05:49:57;3.70;;;1.10;;
43327;SDS011;28923;45.412;10.852;2023-05-10T05:52:22;4.43;;;1.00;;
43327;SDS011;28923;45.412;10.852;2023-05-10T05:54:48;3.55;;;1.00;;
43327;SDS011;28923;45.412;10.852;2023-05-10T05:57:13;7.05;;;1.08;;
43327;SDS011;28923;45.412;10.852;2023-05-10T05:59:39;6.20;;;1.00;;
43327;SDS011;28923;45.412;10.852;2023-05-10T06:02:09;1.15;;;0.60;;
43327;SDS011;28923;45.412;10.852;2023-05-10T06:04:34;1.90;;;0.85;;
43327;SDS011;28923;45.412;10.852;2023-05-10T06:07:00;3.15;;;1.05;;
43327;SDS011;28923;45.412;10.852;2023-05-10T06:09:25;5.18;;;1.05;;
43327;SDS011;28923;45.412;10.852;2023-05-10T06:11:50;5.35;;;1.13;;
43327;SDS011;28923;45.412;10.852;2023-05-10T06:14:16;4.13;;;0.90;;
43327;SDS011;28923;45.412;10.852;2023-05-10T06:16:41;5.32;;;0.93;;
43327;SDS011;28923;45.412;10.852;2023-05-10T06:19:06;1.90;;;0.90;;
43327;SDS011;28923;45.412;10.852;2023-05-10T06:21:32;2.92;;;0.98;;
43327;SDS011;28923;45.412;10.852;2023-05-10T06:23:57;2.50;;;1.05;;
43327;SDS011;28923;45.412;10.852;2023-05-10T06:26:23;1.60;;;0.90;;
43327;SDS011;28923;45.412;10.852;2023-05-10T06:28:48;2.05;;;0.82;;
43327;SDS011;28923;45.412;10.852;2023-05-10T06:31:13;2.50;;;0.80;;
43327;SDS011;28923;45.412;10.852;2023-05-10T06:33:39;2.10;;;0.77;;
43327;SDS011;28923;45.412;10.852;2023-05-10T06:36:04;3.30;;;0.90;;
43327;SDS011;28923;45.412;10.852;2023-05-10T06:38:30;2.00;;;0.90;;
43327;SDS011;28923;45.412;10.852;2023-05-10T06:40:55;2.20;;;0.70;;
43327;SDS011;28923;45.412;10.852;2023-05-10T06:43:20;2.92;;;0.98;;
43327;SDS011;28923;45.412;10.852;2023-05-10T06:45:47;0.73;;;0.70;;
43327;SDS011;28923;45.412;10.852;2023-05-10T06:48:12;1.38;;;0.85;;
43327;SDS011;28923;45.412;10.852;2023-05-10T06:50:38;0.95;;;0.80;;
43327;SDS011;28923;45.412;10.852;2023-05-10T06:53:03;0.80;;;0.70;;
43327;SDS011;28923;45.412;10.852;2023-05-10T06:55:28;1.20;;;0.80;;
43327;SDS011;28923;45.412;10.852;2023-05-10T06:57:54;1.48;;;0.75;;
43327;SDS011;28923;45.412;10.852;2023-05-10T07:00:19;4.05;;;0.77;;
43327;SDS011;28923;45.412;10.852;2023-05-10T07:02:45;0.77;;;0.70;;
43327;SDS011;28923;45.412;10.852;2023-05-10T07:05:10;2.67;;;0.93;;
43327;SDS011;28923;45.412;10.852;2023-05-10T07:07:36;1.30;;;0.70;;
43327;SDS011;28923;45.412;10.852;2023-05-10T07:10:02;1.80;;;0.80;;
43327;SDS011;28923;45.412;10.852;2023-05-10T07:12:27;1.10;;;0.77;;
43327;SDS011;28923;45.412;10.852;2023-05-10T07:14:53;1.83;;;0.90;;
43327;SDS011;28923;45.412;10.852;2023-05-10T07:17:18;2.45;;;0.70;;
43327;SDS011;28923;45.412;10.852;2023-05-10T07:19:44;0.70;;;0.60;;
43327;SDS011;28923;45.412;10.852;2023-05-10T07:22:09;1.38;;;1.00;;
43327;SDS011;28923;45.412;10.852;2023-05-10T07:24:34;0.82;;;0.82;;
43327;SDS011;28923;45.412;10.852;2023-05-10T07:27:00;1.20;;;0.82;;
43327;SDS011;28923;45.412;10.852;2023-05-10T07:29:25;1.20;;;0.90;;
43327;SDS011;28923;45.412;10.852;2023-05-10T07:31:51;1.20;;;0.70;;
43327;SDS011;28923;45.412;10.852;2023-05-10T07:34:16;1.20;;;0.75;;
43327;SDS011;28923;45.412;10.852;2023-05-10T07:36:41;1.25;;;1.00;;
43327;SDS011;28923;45.412;10.852;2023-05-10T07:39:07;1.23;;;0.75;;
43327;SDS011;28923;45.412;10.852;2023-05-10T07:41:32;1.50;;;0.60;;
43327;SDS011;28923;45.412;10.852;2023-05-10T07:43:58;1.25;;;0.73;;
43327;SDS011;28923;45.412;10.852;2023-05-10T07:46:23;0.93;;;0.75;;
43327;SDS011;28923;45.412;10.852;2023-05-10T07:48:49;1.33;;;0.75;;
43327;SDS011;28923;45.412;10.852;2023-05-10T07:51:14;0.82;;;0.82;;
43327;SDS011;28923;45.412;10.852;2023-05-10T07:53:39;1.83;;;0.80;;
43327;SDS011;28923;45.412;10.852;2023-05-10T07:58:45;0.73;;;0.70;;
43327;SDS011;28923;45.412;10.852;2023-05-10T08:01:10;0.85;;;0.70;;
43327;SDS011;28923;45.412;10.852;2023-05-10T08:03:36;0.73;;;0.70;;
43327;SDS011;28923;45.412;10.852;2023-05-10T08:06:01;0.63;;;0.63;;
43327;SDS011;28923;45.412;10.852;2023-05-10T08:08:27;0.60;;;0.60;;
43327;SDS011;28923;45.412;10.852;2023-05-10T08:10:52;1.52;;;0.80;;
43327;SDS011;28923;45.412;10.852;2023-05-10T08:13:18;0.60;;;0.60;;
43327;SDS011;28923;45.412;10.852;2023-05-10T08:15:43;1.15;;;0.80;;
43327;SDS011;28923;45.412;10.852;2023-05-10T08:18:08;1.60;;;0.73;;
43327;SDS011;28923;45.412;10.852;2023-05-10T08:20:34;0.80;;;0.68;;
43327;SDS011;28923;45.412;10.852;2023-05-10T08:22:59;1.15;;;0.85;;
43327;SDS011;28923;45.412;10.852;2023-05-10T08:25:24;0.65;;;0.65;;
43327;SDS011;28923;45.412;10.852;2023-05-10T08:27:50;0.75;;;0.70;;
43327;SDS011;28923;45.412;10.852;2023-05-10T08:30:16;0.80;;;0.70;;
43327;SDS011;28923;45.412;10.852;2023-05-10T08:32:41;0.77;;;0.77;;
43327;SDS011;28923;45.412;10.852;2023-05-10T08:35:06;0.70;;;0.70;;
43327;SDS011;28923;45.412;10.852;2023-05-10T08:37:32;0.93;;;0.60;;
43327;SDS011;28923;45.412;10.852;2023-05-10T08:39:58;1.77;;;0.90;;
43327;SDS011;28923;45.412;10.852;2023-05-10T08:42:23;1.27;;;0.82;;
43327;SDS011;28923;45.412;10.852;2023-05-10T08:44:50;0.88;;;0.70;;
43327;SDS011;28923;45.412;10.852;2023-05-10T08:47:17;1.67;;;0.75;;
43327;SDS011;28923;45.412;10.852;2023-05-10T08:49:44;1.38;;;0.90;;
43327;SDS011;28923;45.412;10.852;2023-05-10T08:52:12;1.10;;;0.75;;
43327;SDS011;28923;45.412;10.852;2023-05-10T08:54:39;1.20;;;0.70;;
43327;SDS011;28923;45.412;10.852;2023-05-10T08:57:05;0.50;;;0.50;;
43327;SDS011;28923;45.412;10.852;2023-05-10T08:59:31;0.88;;;0.80;;
43327;SDS011;28923;45.412;10.852;2023-05-10T09:01:58;0.70;;;0.70;;
43327;SDS011;28923;45.412;10.852;2023-05-10T09:04:24;0.75;;;0.75;;
43327;SDS011;28923;45.412;10.852;2023-05-10T09:06:49;0.63;;;0.50;;
43327;SDS011;28923;45.412;10.852;2023-05-10T09:09:15;1.02;;;0.70;;
43327;SDS011;28923;45.412;10.852;2023-05-10T09:11:41;1.15;;;0.60;;
43327;SDS011;28923;45.412;10.852;2023-05-10T09:14:08;1.55;;;0.75;;
43327;SDS011;28923;45.412;10.852;2023-05-10T09:16:34;0.63;;;0.50;;
43327;SDS011;28923;45.412;10.852;2023-05-10T09:18:59;0.60;;;0.60;;
43327;SDS011;28923;45.412;10.852;2023-05-10T09:21:25;0.60;;;0.60;;
43327;SDS011;28923;45.412;10.852;2023-05-10T09:23:50;0.65;;;0.63;;
43327;SDS011;28923;45.412;10.852;2023-05-10T09:26:22;0.65;;;0.65;;
43327;SDS011;28923;45.412;10.852;2023-05-10T09:31:15;0.85;;;0.70;;
43327;SDS011;28923;45.412;10.852;2023-05-10T09:33:44;0.70;;;0.70;;
43327;SDS011;28923;45.412;10.852;2023-05-10T09:36:09;0.85;;;0.82;;
43327;SDS011;28923;45.412;10.852;2023-05-10T09:38:48;0.80;;;0.70;;
43327;SDS011;28923;45.412;10.852;2023-05-10T09:43:43;0.75;;;0.70;;
43327;SDS011;28923;45.412;10.852;2023-05-10T09:46:08;2.90;;;0.80;;
43327;SDS011;28923;45.412;10.852;2023-05-10T09:48:34;1.17;;;0.90;;
43327;SDS011;28923;45.412;10.852;2023-05-10T09:51:05;2.13;;;0.80;;
43327;SDS011;28923;45.412;10.852;2023-05-10T09:53:30;1.58;;;0.82;;
43327;SDS011;28923;45.412;10.852;2023-05-10T09:55:56;2.28;;;1.00;;
43327;SDS011;28923;45.412;10.852;2023-05-10T09:58:21;1.60;;;0.80;;
43327;SDS011;28923;45.412;10.852;2023-05-10T10:00:46;0.68;;;0.68;;
43327;SDS011;28923;45.412;10.852;2023-05-10T10:03:18;1.05;;;0.80;;
43327;SDS011;28923;45.412;10.852;2023-05-10T10:05:44;0.80;;;0.77;;
43327;SDS011;28923;45.412;10.852;2023-05-10T10:08:10;1.65;;;0.90;;
43327;SDS011;28923;45.412;10.852;2023-05-10T10:10:36;1.40;;;0.90;;
43327;SDS011;28923;45.412;10.852;2023-05-10T10:13:01;0.75;;;0.75;;
43327;SDS011;28923;45.412;10.852;2023-05-10T10:15:27;0.73;;;0.60;;
43327;SDS011;28923;45.412;10.852;2023-05-10T10:17:52;0.80;;;0.68;;
43327;SDS011;28923;45.412;10.852;2023-05-10T10:20:18;2.65;;;0.73;;
43327;SDS011;28923;45.412;10.852;2023-05-10T10:22:44;0.93;;;0.80;;
43327;SDS011;28923;45.412;10.852;2023-05-10T10:25:11;1.63;;;0.80;;
43327;SDS011;28923;45.412;10.852;2023-05-10T10:35:19;1.02;;;0.70;;
43327;SDS011;28923;45.412;10.852;2023-05-10T10:37:46;1.15;;;0.80;;
43327;SDS011;28923;45.412;10.852;2023-05-10T10:40:27;1.42;;;1.15;;
43327;SDS011;28923;45.412;10.852;2023-05-10T10:42:53;0.88;;;0.70;;
43327;SDS011;28923;45.412;10.852;2023-05-10T10:45:19;1.20;;;0.90;;
43327;SDS011;28923;45.412;10.852;2023-05-10T10:47:46;0.77;;;0.60;;
43327;SDS011;28923;45.412;10.852;2023-05-10T10:50:11;2.00;;;1.10;;
43327;SDS011;28923;45.412;10.852;2023-05-10T10:52:44;1.40;;;0.75;;
43327;SDS011;28923;45.412;10.852;2023-05-10T10:55:17;0.90;;;0.70;;
43327;SDS011;28923;45.412;10.852;2023-05-10T11:00:21;1.13;;;0.80;;
43327;SDS011;28923;45.412;10.852;2023-05-10T11:07:54;4.22;;;0.75;;
43327;SDS011;28923;45.412;10.852;2023-05-10T11:10:20;2.45;;;0.70;;
43327;SDS011;28923;45.412;10.852;2023-05-10T11:13:01;2.15;;;0.77;;
43327;SDS011;28923;45.412;10.852;2023-05-10T11:17:56;0.82;;;0.77;;
43327;SDS011;28923;45.412;10.852;2023-05-10T11:20:21;2.25;;;1.02;;
43327;SDS011;28923;45.412;10.852;2023-05-10T11:22:53;2.10;;;0.52;;
43327;SDS011;28923;45.412;10.852;2023-05-10T11:25:19;0.98;;;0.80;;
43327;SDS011;28923;45.412;10.852;2023-05-10T11:27:49;1.13;;;0.60;;
43327;SDS011;28923;45.412;10.852;2023-05-10T11:30:14;1.48;;;0.60;;
43327;SDS011;28923;45.412;10.852;2023-05-10T11:32:40;1.52;;;0.68;;
43327;SDS011;28923;45.412;10.852;2023-05-10T11:35:09;0.60;;;0.50;;
43327;SDS011;28923;45.412;10.852;2023-05-10T11:37:34;1.77;;;0.75;;
43327;SDS011;28923;45.412;10.852;2023-05-10T11:40:00;1.73;;;0.73;;
43327;SDS011;28923;45.412;10.852;2023-05-10T11:42:27;0.73;;;0.70;;
43327;SDS011;28923;45.412;10.852;2023-05-10T11:44:52;0.85;;;0.60;;
43327;SDS011;28923;45.412;10.852;2023-05-10T11:47:18;0.93;;;0.70;;
43327;SDS011;28923;45.412;10.852;2023-05-10T11:49:44;3.90;;;0.80;;
43327;SDS011;28923;45.412;10.852;2023-05-10T11:52:10;3.50;;;0.70;;
43327;SDS011;28923;45.412;10.852;2023-05-10T11:54:44;0.93;;;0.70;;
43327;SDS011;28923;45.412;10.852;2023-05-10T11:57:10;1.13;;;0.83;;
43327;SDS011;28923;45.412;10.852;2023-05-10T11:59:36;0.95;;;0.70;;
43327;SDS011;28923;45.412;10.852;2023-05-10T12:02:01;2.13;;;0.73;;
43327;SDS011;28923;45.412;10.852;2023-05-10T12:04:28;3.30;;;1.10;;
43327;SDS011;28923;45.412;10.852;2023-05-10T12:06:54;1.95;;;0.80;;
43327;SDS011;28923;45.412;10.852;2023-05-10T12:09:19;0.75;;;0.70;;
43327;SDS011;28923;45.412;10.852;2023-05-10T12:11:45;1.40;;;0.90;;
43327;SDS011;28923;45.412;10.852;2023-05-10T12:14:10;0.90;;;0.85;;
43327;SDS011;28923;45.412;10.852;2023-05-10T12:16:36;1.00;;;0.77;;
43327;SDS011;28923;45.412;10.852;2023-05-10T12:19:01;1.45;;;0.80;;
43327;SDS011;28923;45.412;10.852;2023-05-10T12:21:28;1.08;;;0.63;;
43327;SDS011;28923;45.412;10.852;2023-05-10T12:23:54;2.03;;;0.77;;
43327;SDS011;28923;45.412;10.852;2023-05-10T12:26:23;1.00;;;0.70;;
43327;SDS011;28923;45.412;10.852;2023-05-10T12:28:49;2.55;;;0.73;;
43327;SDS011;28923;45.412;10.852;2023-05-10T12:31:14;2.83;;;0.70;;
43327;SDS011;28923;45.412;10.852;2023-05-10T12:33:41;1.10;;;0.70;;
43327;SDS011;28923;45.412;10.852;2023-05-10T12:36:08;0.90;;;0.70;;
43327;SDS011;28923;45.412;10.852;2023-05-10T12:40:59;1.15;;;0.90;;
43327;SDS011;28923;45.412;10.852;2023-05-10T12:43:25;0.70;;;0.60;;
43327;SDS011;28923;45.412;10.852;2023-05-10T12:45:51;0.98;;;0.60;;
43327;SDS011;28923;45.412;10.852;2023-05-10T12:48:16;0.60;;;0.60;;
43327;SDS011;28923;45.412;10.852;2023-05-10T12:50:42;1.17;;;0.63;;
43327;SDS011;28923;45.412;10.852;2023-05-10T12:53:07;0.95;;;0.50;;
43327;SDS011;28923;45.412;10.852;2023-05-10T12:55:32;1.25;;;0.80;;
43327;SDS011;28923;45.412;10.852;2023-05-10T12:57:58;1.83;;;0.60;;
43327;SDS011;28923;45.412;10.852;2023-05-10T13:00:23;1.48;;;0.70;;
43327;SDS011;28923;45.412;10.852;2023-05-10T13:02:48;0.60;;;0.55;;
43327;SDS011;28923;45.412;10.852;2023-05-10T13:05:14;0.98;;;0.70;;
43327;SDS011;28923;45.412;10.852;2023-05-10T13:07:39;0.93;;;0.70;;
43327;SDS011;28923;45.412;10.852;2023-05-10T13:10:05;0.85;;;0.70;;
43327;SDS011;28923;45.412;10.852;2023-05-10T13:12:31;0.60;;;0.60;;
43327;SDS011;28923;45.412;10.852;2023-05-10T13:14:57;1.77;;;0.70;;
43327;SDS011;28923;45.412;10.852;2023-05-10T13:17:22;1.08;;;0.60;;
43327;SDS011;28923;45.412;10.852;2023-05-10T13:19:48;1.42;;;0.75;;
43327;SDS011;28923;45.412;10.852;2023-05-10T13:22:13;0.60;;;0.57;;
43327;SDS011;28923;45.412;10.852;2023-05-10T13:24:38;0.85;;;0.60;;
43327;SDS011;28923;45.412;10.852;2023-05-10T13:27:04;0.60;;;0.60;;
43327;SDS011;28923;45.412;10.852;2023-05-10T13:29:29;2.00;;;0.73;;
43327;SDS011;28923;45.412;10.852;2023-05-10T13:31:54;0.70;;;0.70;;
43327;SDS011;28923;45.412;10.852;2023-05-10T13:34:20;2.22;;;0.90;;
43327;SDS011;28923;45.412;10.852;2023-05-10T13:36:46;0.40;;;0.40;;
43327;SDS011;28923;45.412;10.852;2023-05-10T13:39:12;1.02;;;0.50;;
43327;SDS011;28923;45.412;10.852;2023-05-10T13:41:37;1.05;;;0.68;;
43327;SDS011;28923;45.412;10.852;2023-05-10T13:44:03;0.70;;;0.70;;
43327;SDS011;28923;45.412;10.852;2023-05-10T13:46:29;0.88;;;0.80;;
43327;SDS011;28923;45.412;10.852;2023-05-10T13:48:54;0.40;;;0.40;;
43327;SDS011;28923;45.412;10.852;2023-05-10T13:51:20;0.68;;;0.60;;
43327;SDS011;28923;45.412;10.852;2023-05-10T13:53:45;1.42;;;0.57;;
43327;SDS011;28923;45.412;10.852;2023-05-10T13:56:12;0.43;;;0.43;;
43327;SDS011;28923;45.412;10.852;2023-05-10T13:58:37;0.98;;;0.60;;
43327;SDS011;28923;45.412;10.852;2023-05-10T14:01:03;0.82;;;0.68;;
43327;SDS011;28923;45.412;10.852;2023-05-10T14:03:30;1.27;;;0.75;;
43327;SDS011;28923;45.412;10.852;2023-05-10T14:05:55;0.77;;;0.50;;
43327;SDS011;28923;45.412;10.852;2023-05-10T14:08:21;0.75;;;0.70;;
43327;SDS011;28923;45.412;10.852;2023-05-10T14:10:46;0.70;;;0.70;;
43327;SDS011;28923;45.412;10.852;2023-05-10T14:13:12;0.60;;;0.60;;
43327;SDS011;28923;45.412;10.852;2023-05-10T14:15:37;0.50;;;0.50;;
43327;SDS011;28923;45.412;10.852;2023-05-10T14:18:02;0.98;;;0.60;;
43327;SDS011;28923;45.412;10.852;2023-05-10T14:20:28;0.63;;;0.47;;
43327;SDS011;28923;45.412;10.852;2023-05-10T14:22:54;0.73;;;0.50;;
43327;SDS011;28923;45.412;10.852;2023-05-10T14:25:19;0.60;;;0.60;;
43327;SDS011;28923;45.412;10.852;2023-05-10T14:27:44;0.47;;;0.38;;
43327;SDS011;28923;45.412;10.852;2023-05-10T14:30:10;1.02;;;0.70;;
43327;SDS011;28923;45.412;10.852;2023-05-10T14:32:35;0.52;;;0.30;;
43327;SDS011;28923;45.412;10.852;2023-05-10T14:35:02;0.45;;;0.45;;
43327;SDS011;28923;45.412;10.852;2023-05-10T14:37:27;0.63;;;0.50;;
43327;SDS011;28923;45.412;10.852;2023-05-10T14:39:52;0.60;;;0.43;;
43327;SDS011;28923;45.412;10.852;2023-05-10T14:45:48;0.88;;;0.50;;
43327;SDS011;28923;45.412;10.852;2023-05-10T14:48:13;1.67;;;0.57;;
43327;SDS011;28923;45.412;10.852;2023-05-10T14:50:42;0.50;;;0.40;;
43327;SDS011;28923;45.412;10.852;2023-05-10T14:53:07;0.82;;;0.60;;
43327;SDS011;28923;45.412;10.852;2023-05-10T14:55:33;0.77;;;0.60;;
43327;SDS011;28923;45.412;10.852;2023-05-10T14:57:59;0.47;;;0.43;;
43327;SDS011;28923;45.412;10.852;2023-05-10T15:00:25;2.45;;;0.50;;
43327;SDS011;28923;45.412;10.852;2023-05-10T15:02:50;0.60;;;0.50;;
43327;SDS011;28923;45.412;10.852;2023-05-10T15:05:15;0.98;;;0.30;;
43327;SDS011;28923;45.412;10.852;2023-05-10T15:07:41;0.63;;;0.63;;
43327;SDS011;28923;45.412;10.852;2023-05-10T15:10:09;0.45;;;0.45;;
43327;SDS011;28923;45.412;10.852;2023-05-10T15:12:34;2.15;;;0.43;;
43327;SDS011;28923;45.412;10.852;2023-05-10T15:15:00;0.55;;;0.40;;
43327;SDS011;28923;45.412;10.852;2023-05-10T15:17:25;1.05;;;0.75;;
43327;SDS011;28923;45.412;10.852;2023-05-10T15:19:50;0.95;;;0.60;;
43327;SDS011;28923;45.412;10.852;2023-05-10T15:22:16;1.73;;;0.93;;